RAAF Base Pearce

YPEA · Western Australia, 澳大利亚

罗盘
风向 的 风向 190° RAAF Base Pearce 18L/36R
风: 8 kt, 3 beaufort

8 kt

2 kt
改变
0 ft 2.000 4.000 6.000 8.000 10.000
Cloud Cloud Cloud Cloud Cloud Cloud Cloud Cloud
OVC 5.300
METAR YPEA 230700Z AUTO 19008KT 9999 // OVC053 16/08 Q1025 RF00.0/000.0

METAR RAAF Base Pearce - YPEA

RAAF Base Pearce是,澳大利亚中的中型机场。 该机场位于纬度-31,67228和经度116,01483。 该机场有3条跑道: 18L/36R, 18R/36L 和 5/23. 本场的ICAO机场代码为YPEA。 机场在Melbourne FIR中。

该航空气象观测是针对RAAF Base Pearce在2024年6月23日 15:00, 当地时间进行的。

机场观察

风向为190°,速度为8 kt。

可见度为10 km 或者更多。

有乌云密布在5.300 ft的高度。 破损或更高的上限为5.300 ft。

温度和风寒是16 °C。 露点为8 °C,相对湿度为59%。 海平面上的气压为1025 hPa (QNH)。

白天

今天,太阳从07:15升起,在17:20降落。 这适用于RAAF Base Pearce,世界夏令时可能有所不同。 当地时间与世界标准时间之间的时差为+8 小时。 夏令时目前正在进行中。

公司介绍

我们没有关于这个机场的公司信息。

体会

到Vliegles.nl去找飞行课程,跳伞和其他飞行体验。 浏览页面,了解RAAF Base Pearce附近所有可用的活动。 你也可以使用搜索功能来寻找你所在地附近的特定飞行课程、跳伞或其他飞行体验。

跑道

Id 标题 侧风 逆风 侧风 %
18L/36R 173°-353° 2 kt 8 kt 29 %
18R/36L 173°-353° 2 kt 8 kt 29 %
5/23 043°-223° 4 kt 7 kt 54 %

逆风成分最大的方向会被突出显示,并用于横风计算。 这并不一定意味着这个方向在使用。

乌云

5.300 ft OVC 乌云密布

温度 & 天气

温度 16 °C
露点 8 °C
相对湿度 59%
Kp-index 1 (0-9)

白天

日出
07:15
中午
12:18
日落
17:20 (1:52)

小工具

你想在你的网站上有一个关于RAAF Base Pearce的当前航空天气(METAR)的小部件吗?

显示HTML代码
报告变更